Airfield :
LOGIN :

Register | Disclaimer

   EN    FR    IT 

 










Legend :    VFR   Marginal VFR   IFR   Intensive IFR   Very Intensive IFR
Visi :
Ceiling :
>= 8 km
>= 3000ft
5 to 8 km
1000 to 3000 ft
1500m to 5 km
500 to 1000 ft
800 to 1500m
200 to 500 ft
< 800m
< 200 ft
Symbols :   Thunderstorms  Fog  Heavy snow  Heavy precipitations  Wind > 20 kt
SIGMETs :     Misc.  Thunderstorms  Icing  Turbulence  Mountain Waves  Volcanic Ashes







- Airport Elevation : 353 ft
- IATA code : LIN


LIML - Milano Linate

CURRENT METAR :
  • 221550Z 20004KT 130V280 CAVOK 19/M02 Q1027 NOSIG

EXPIRED METARs :
  • 221520Z 17003KT 120V200 CAVOK 19/M00 Q1027 NOSIG
  • 221450Z VRB03KT CAVOK 19/M00 Q1027 NOSIG
  • 221420Z 05003KT 010V130 CAVOK 19/00 Q1028 NOSIG
  • 221350Z 13004KT 090V180 CAVOK 19/M01 Q1028 NOSIG
  • 221320Z 34003KT 290V070 CAVOK 19/M01 Q1029 NOSIG

TAF TAF LIML
Valid from the 22 at 12:00 until the 23 at 12:00 UTC


221100Z 2212/2312 VRB05KT CAVOK
No reported NOTAMs for that airfield.



MET'MAP, your aeronautical weather chart ! - Copyright ORBIFLY December 2007 - Disclaimer

ORBIFLY MET'MAP TEAM :

Programming & Development : Alexandra Zaïnal
Concept & Development : Baudouin d'Aumeries
Co-Development & Prog : Marc-Olivier Méhu
Technical & hardware support : Manuel Goepfert

Contact : metmap@orbifly.com




SOURCES & CREDITS :

   NOAA